sensor_id;sensor_type;location;lat;lon;timestamp;P1;durP1;ratioP1;P2;durP2;ratioP2
80117;SDS011;69424;48.770;-1.564;2023-05-16T00:01:01;4.90;;;1.40;;
80117;SDS011;69424;48.770;-1.564;2023-05-16T00:03:29;6.10;;;1.20;;
80117;SDS011;69424;48.770;-1.564;2023-05-16T00:05:57;4.20;;;1.60;;
80117;SDS011;69424;48.770;-1.564;2023-05-16T00:08:26;3.80;;;2.10;;
80117;SDS011;69424;48.770;-1.564;2023-05-16T00:10:54;7.90;;;1.40;;
80117;SDS011;69424;48.770;-1.564;2023-05-16T00:13:22;7.60;;;1.80;;
80117;SDS011;69424;48.770;-1.564;2023-05-16T00:15:52;3.40;;;1.40;;
80117;SDS011;69424;48.770;-1.564;2023-05-16T00:18:22;4.50;;;1.70;;
80117;SDS011;69424;48.770;-1.564;2023-05-16T00:20:50;6.50;;;2.00;;
80117;SDS011;69424;48.770;-1.564;2023-05-16T00:23:19;4.10;;;1.40;;
80117;SDS011;69424;48.770;-1.564;2023-05-16T00:25:47;3.80;;;1.00;;
80117;SDS011;69424;48.770;-1.564;2023-05-16T00:28:16;3.10;;;1.20;;
80117;SDS011;69424;48.770;-1.564;2023-05-16T00:30:43;4.40;;;1.30;;
80117;SDS011;69424;48.770;-1.564;2023-05-16T00:33:12;5.00;;;1.40;;
80117;SDS011;69424;48.770;-1.564;2023-05-16T00:35:40;4.70;;;2.00;;
80117;SDS011;69424;48.770;-1.564;2023-05-16T00:38:08;4.80;;;1.40;;
80117;SDS011;69424;48.770;-1.564;2023-05-16T00:40:37;5.30;;;1.20;;
80117;SDS011;69424;48.770;-1.564;2023-05-16T00:43:05;6.50;;;1.60;;
80117;SDS011;69424;48.770;-1.564;2023-05-16T00:45:34;6.00;;;1.00;;
80117;SDS011;69424;48.770;-1.564;2023-05-16T00:48:02;4.20;;;1.20;;
80117;SDS011;69424;48.770;-1.564;2023-05-16T00:50:31;1.30;;;0.90;;
80117;SDS011;69424;48.770;-1.564;2023-05-16T00:53:00;4.10;;;1.50;;
80117;SDS011;69424;48.770;-1.564;2023-05-16T00:55:29;7.30;;;1.50;;
80117;SDS011;69424;48.770;-1.564;2023-05-16T00:57:57;3.40;;;1.40;;
80117;SDS011;69424;48.770;-1.564;2023-05-16T01:00:29;5.60;;;1.80;;
80117;SDS011;69424;48.770;-1.564;2023-05-16T01:02:58;2.70;;;1.30;;
80117;SDS011;69424;48.770;-1.564;2023-05-16T01:05:27;3.10;;;1.40;;
80117;SDS011;69424;48.770;-1.564;2023-05-16T01:07:56;2.90;;;1.40;;
80117;SDS011;69424;48.770;-1.564;2023-05-16T01:10:25;6.00;;;1.50;;
80117;SDS011;69424;48.770;-1.564;2023-05-16T01:22:00;6.10;;;1.80;;
80117;SDS011;69424;48.770;-1.564;2023-05-16T01:24:33;2.70;;;1.50;;
80117;SDS011;69424;48.770;-1.564;2023-05-16T01:27:10;2.70;;;1.30;;
80117;SDS011;69424;48.770;-1.564;2023-05-16T01:29:40;2.20;;;1.30;;
80117;SDS011;69424;48.770;-1.564;2023-05-16T01:32:08;6.20;;;1.60;;
80117;SDS011;69424;48.770;-1.564;2023-05-16T01:34:36;2.80;;;1.30;;
80117;SDS011;69424;48.770;-1.564;2023-05-16T01:37:07;3.90;;;1.40;;
80117;SDS011;69424;48.770;-1.564;2023-05-16T01:39:44;4.50;;;1.40;;
80117;SDS011;69424;48.770;-1.564;2023-05-16T01:42:18;5.00;;;1.70;;
80117;SDS011;69424;48.770;-1.564;2023-05-16T01:47:46;2.90;;;1.60;;
80117;SDS011;69424;48.770;-1.564;2023-05-16T01:50:20;3.00;;;2.00;;
80117;SDS011;69424;48.770;-1.564;2023-05-16T01:58:13;2.40;;;1.70;;
80117;SDS011;69424;48.770;-1.564;2023-05-16T02:00:42;2.50;;;1.40;;
80117;SDS011;69424;48.770;-1.564;2023-05-16T02:03:11;2.40;;;1.70;;
80117;SDS011;69424;48.770;-1.564;2023-05-16T02:05:40;4.10;;;1.70;;
80117;SDS011;69424;48.770;-1.564;2023-05-16T02:08:12;4.50;;;1.70;;
80117;SDS011;69424;48.770;-1.564;2023-05-16T02:10:41;3.50;;;1.40;;
80117;SDS011;69424;48.770;-1.564;2023-05-16T02:13:09;6.50;;;1.90;;
80117;SDS011;69424;48.770;-1.564;2023-05-16T02:15:38;2.50;;;1.90;;
80117;SDS011;69424;48.770;-1.564;2023-05-16T02:18:06;3.00;;;1.50;;
80117;SDS011;69424;48.770;-1.564;2023-05-16T02:20:34;6.30;;;1.80;;
80117;SDS011;69424;48.770;-1.564;2023-05-16T02:23:02;5.20;;;1.80;;
80117;SDS011;69424;48.770;-1.564;2023-05-16T02:25:32;4.90;;;1.70;;
80117;SDS011;69424;48.770;-1.564;2023-05-16T02:28:00;4.20;;;1.60;;
80117;SDS011;69424;48.770;-1.564;2023-05-16T02:30:27;3.20;;;1.80;;
80117;SDS011;69424;48.770;-1.564;2023-05-16T02:32:56;7.40;;;1.70;;
80117;SDS011;69424;48.770;-1.564;2023-05-16T02:35:24;3.20;;;1.30;;
80117;SDS011;69424;48.770;-1.564;2023-05-16T02:37:52;3.20;;;1.90;;
80117;SDS011;69424;48.770;-1.564;2023-05-16T02:40:21;3.30;;;1.60;;
80117;SDS011;69424;48.770;-1.564;2023-05-16T02:42:49;5.40;;;1.70;;
80117;SDS011;69424;48.770;-1.564;2023-05-16T02:45:17;4.20;;;2.00;;
80117;SDS011;69424;48.770;-1.564;2023-05-16T02:47:45;2.30;;;1.80;;
80117;SDS011;69424;48.770;-1.564;2023-05-16T02:50:13;5.50;;;1.70;;
80117;SDS011;69424;48.770;-1.564;2023-05-16T02:52:41;3.80;;;2.00;;
80117;SDS011;69424;48.770;-1.564;2023-05-16T02:55:09;4.70;;;2.00;;
80117;SDS011;69424;48.770;-1.564;2023-05-16T02:57:49;3.30;;;1.70;;
80117;SDS011;69424;48.770;-1.564;2023-05-16T03:00:17;2.80;;;1.60;;
80117;SDS011;69424;48.770;-1.564;2023-05-16T03:02:46;3.40;;;2.40;;
80117;SDS011;69424;48.770;-1.564;2023-05-16T03:05:16;2.10;;;1.70;;
80117;SDS011;69424;48.770;-1.564;2023-05-16T03:07:45;4.70;;;2.00;;
80117;SDS011;69424;48.770;-1.564;2023-05-16T03:10:13;4.20;;;1.50;;
80117;SDS011;69424;48.770;-1.564;2023-05-16T03:12:41;3.40;;;1.60;;
80117;SDS011;69424;48.770;-1.564;2023-05-16T03:15:09;2.80;;;1.80;;
80117;SDS011;69424;48.770;-1.564;2023-05-16T03:17:37;4.40;;;1.60;;
80117;SDS011;69424;48.770;-1.564;2023-05-16T03:20:06;5.30;;;2.40;;
80117;SDS011;69424;48.770;-1.564;2023-05-16T03:22:36;6.10;;;1.60;;
80117;SDS011;69424;48.770;-1.564;2023-05-16T03:25:04;2.00;;;1.40;;
80117;SDS011;69424;48.770;-1.564;2023-05-16T03:27:32;3.50;;;1.90;;
80117;SDS011;69424;48.770;-1.564;2023-05-16T03:30:00;3.90;;;2.10;;
80117;SDS011;69424;48.770;-1.564;2023-05-16T03:32:29;3.70;;;1.90;;
80117;SDS011;69424;48.770;-1.564;2023-05-16T03:34:57;2.90;;;2.00;;
80117;SDS011;69424;48.770;-1.564;2023-05-16T03:37:26;5.20;;;1.70;;
80117;SDS011;69424;48.770;-1.564;2023-05-16T03:39:54;5.20;;;1.70;;
80117;SDS011;69424;48.770;-1.564;2023-05-16T03:42:22;2.90;;;1.70;;
80117;SDS011;69424;48.770;-1.564;2023-05-16T03:44:50;3.40;;;1.80;;
80117;SDS011;69424;48.770;-1.564;2023-05-16T03:47:18;3.00;;;1.80;;
80117;SDS011;69424;48.770;-1.564;2023-05-16T03:49:46;4.10;;;1.80;;
80117;SDS011;69424;48.770;-1.564;2023-05-16T03:52:14;5.70;;;2.10;;
80117;SDS011;69424;48.770;-1.564;2023-05-16T03:54:42;3.20;;;1.90;;
80117;SDS011;69424;48.770;-1.564;2023-05-16T03:57:11;1.60;;;1.30;;
80117;SDS011;69424;48.770;-1.564;2023-05-16T03:59:39;3.20;;;2.00;;
80117;SDS011;69424;48.770;-1.564;2023-05-16T04:02:07;2.20;;;1.70;;
80117;SDS011;69424;48.770;-1.564;2023-05-16T04:04:35;5.00;;;1.90;;
80117;SDS011;69424;48.770;-1.564;2023-05-16T04:07:03;3.50;;;1.40;;
80117;SDS011;69424;48.770;-1.564;2023-05-16T04:09:33;4.00;;;1.80;;
80117;SDS011;69424;48.770;-1.564;2023-05-16T04:12:01;5.00;;;1.80;;
80117;SDS011;69424;48.770;-1.564;2023-05-16T04:14:29;5.20;;;2.50;;
80117;SDS011;69424;48.770;-1.564;2023-05-16T04:16:58;5.40;;;2.20;;
80117;SDS011;69424;48.770;-1.564;2023-05-16T04:19:27;4.50;;;2.10;;
80117;SDS011;69424;48.770;-1.564;2023-05-16T04:21:55;4.10;;;1.60;;
80117;SDS011;69424;48.770;-1.564;2023-05-16T04:24:23;3.30;;;2.00;;
80117;SDS011;69424;48.770;-1.564;2023-05-16T04:26:53;6.00;;;2.00;;
80117;SDS011;69424;48.770;-1.564;2023-05-16T04:29:22;5.20;;;2.10;;
80117;SDS011;69424;48.770;-1.564;2023-05-16T04:31:50;3.30;;;1.80;;
80117;SDS011;69424;48.770;-1.564;2023-05-16T04:34:18;3.80;;;1.80;;
80117;SDS011;69424;48.770;-1.564;2023-05-16T04:36:46;2.40;;;2.10;;
80117;SDS011;69424;48.770;-1.564;2023-05-16T04:39:14;10.50;;;2.60;;
80117;SDS011;69424;48.770;-1.564;2023-05-16T04:41:42;5.20;;;2.50;;
80117;SDS011;69424;48.770;-1.564;2023-05-16T04:44:10;2.90;;;1.70;;
80117;SDS011;69424;48.770;-1.564;2023-05-16T04:46:38;5.70;;;2.10;;
80117;SDS011;69424;48.770;-1.564;2023-05-16T04:49:07;3.20;;;2.20;;
80117;SDS011;69424;48.770;-1.564;2023-05-16T04:51:35;4.50;;;1.80;;
80117;SDS011;69424;48.770;-1.564;2023-05-16T04:54:03;5.30;;;2.20;;
80117;SDS011;69424;48.770;-1.564;2023-05-16T04:56:31;4.20;;;2.10;;
80117;SDS011;69424;48.770;-1.564;2023-05-16T04:58:59;2.30;;;1.80;;
80117;SDS011;69424;48.770;-1.564;2023-05-16T05:01:27;3.50;;;2.10;;
80117;SDS011;69424;48.770;-1.564;2023-05-16T05:03:55;3.50;;;2.40;;
80117;SDS011;69424;48.770;-1.564;2023-05-16T05:06:23;4.20;;;2.30;;
80117;SDS011;69424;48.770;-1.564;2023-05-16T05:08:52;3.50;;;2.10;;
80117;SDS011;69424;48.770;-1.564;2023-05-16T05:11:21;3.30;;;1.70;;
80117;SDS011;69424;48.770;-1.564;2023-05-16T05:13:50;5.10;;;2.10;;
80117;SDS011;69424;48.770;-1.564;2023-05-16T05:16:19;5.90;;;2.10;;
80117;SDS011;69424;48.770;-1.564;2023-05-16T05:18:48;2.60;;;2.00;;
80117;SDS011;69424;48.770;-1.564;2023-05-16T05:21:16;5.50;;;1.90;;
80117;SDS011;69424;48.770;-1.564;2023-05-16T05:23:45;3.40;;;2.10;;
80117;SDS011;69424;48.770;-1.564;2023-05-16T05:26:13;4.30;;;2.60;;
80117;SDS011;69424;48.770;-1.564;2023-05-16T05:28:42;4.20;;;2.10;;
80117;SDS011;69424;48.770;-1.564;2023-05-16T05:31:20;2.60;;;2.10;;
80117;SDS011;69424;48.770;-1.564;2023-05-16T05:33:48;4.40;;;2.50;;
80117;SDS011;69424;48.770;-1.564;2023-05-16T05:36:17;4.90;;;2.40;;
80117;SDS011;69424;48.770;-1.564;2023-05-16T05:38:45;3.50;;;2.10;;
80117;SDS011;69424;48.770;-1.564;2023-05-16T05:41:13;4.40;;;2.00;;
80117;SDS011;69424;48.770;-1.564;2023-05-16T05:43:41;2.40;;;2.20;;
80117;SDS011;69424;48.770;-1.564;2023-05-16T05:46:09;2.70;;;2.00;;
80117;SDS011;69424;48.770;-1.564;2023-05-16T05:48:37;2.80;;;2.40;;
80117;SDS011;69424;48.770;-1.564;2023-05-16T05:51:05;4.60;;;2.70;;
80117;SDS011;69424;48.770;-1.564;2023-05-16T05:53:33;4.20;;;1.90;;
80117;SDS011;69424;48.770;-1.564;2023-05-16T05:56:01;4.90;;;2.10;;
80117;SDS011;69424;48.770;-1.564;2023-05-16T05:58:29;3.30;;;2.00;;
80117;SDS011;69424;48.770;-1.564;2023-05-16T06:00:57;3.10;;;1.90;;
80117;SDS011;69424;48.770;-1.564;2023-05-16T06:03:25;3.80;;;2.30;;
80117;SDS011;69424;48.770;-1.564;2023-05-16T06:05:54;3.20;;;2.50;;
80117;SDS011;69424;48.770;-1.564;2023-05-16T06:08:22;2.40;;;1.50;;
80117;SDS011;69424;48.770;-1.564;2023-05-16T06:10:50;5.10;;;1.90;;
80117;SDS011;69424;48.770;-1.564;2023-05-16T06:13:19;4.60;;;1.90;;
80117;SDS011;69424;48.770;-1.564;2023-05-16T06:15:51;3.30;;;1.60;;
80117;SDS011;69424;48.770;-1.564;2023-05-16T06:18:20;4.90;;;1.80;;
80117;SDS011;69424;48.770;-1.564;2023-05-16T06:20:48;4.80;;;1.80;;
80117;SDS011;69424;48.770;-1.564;2023-05-16T06:23:17;3.90;;;1.90;;
80117;SDS011;69424;48.770;-1.564;2023-05-16T06:25:47;2.40;;;1.70;;
80117;SDS011;69424;48.770;-1.564;2023-05-16T06:28:15;2.60;;;1.70;;
80117;SDS011;69424;48.770;-1.564;2023-05-16T06:30:43;4.00;;;1.50;;
80117;SDS011;69424;48.770;-1.564;2023-05-16T06:33:13;3.90;;;1.50;;
80117;SDS011;69424;48.770;-1.564;2023-05-16T06:35:42;2.50;;;1.70;;
80117;SDS011;69424;48.770;-1.564;2023-05-16T06:38:10;4.70;;;2.00;;
80117;SDS011;69424;48.770;-1.564;2023-05-16T06:40:38;11.50;;;3.70;;
80117;SDS011;69424;48.770;-1.564;2023-05-16T06:43:06;15.00;;;4.50;;
80117;SDS011;69424;48.770;-1.564;2023-05-16T06:45:34;31.80;;;9.30;;
80117;SDS011;69424;48.770;-1.564;2023-05-16T06:48:03;29.80;;;8.20;;
80117;SDS011;69424;48.770;-1.564;2023-05-16T06:50:32;17.10;;;6.50;;
80117;SDS011;69424;48.770;-1.564;2023-05-16T06:53:01;13.50;;;3.90;;
80117;SDS011;69424;48.770;-1.564;2023-05-16T06:55:34;9.10;;;3.50;;
80117;SDS011;69424;48.770;-1.564;2023-05-16T06:58:02;7.40;;;3.30;;
80117;SDS011;69424;48.770;-1.564;2023-05-16T07:00:31;9.70;;;2.30;;
80117;SDS011;69424;48.770;-1.564;2023-05-16T07:03:00;6.20;;;2.30;;
80117;SDS011;69424;48.770;-1.564;2023-05-16T07:05:28;6.80;;;2.20;;
80117;SDS011;69424;48.770;-1.564;2023-05-16T07:07:56;6.00;;;1.90;;
80117;SDS011;69424;48.770;-1.564;2023-05-16T07:10:25;7.70;;;2.70;;
80117;SDS011;69424;48.770;-1.564;2023-05-16T07:12:53;6.80;;;1.80;;
80117;SDS011;69424;48.770;-1.564;2023-05-16T07:15:22;5.90;;;2.40;;
80117;SDS011;69424;48.770;-1.564;2023-05-16T07:17:50;6.50;;;2.70;;
80117;SDS011;69424;48.770;-1.564;2023-05-16T07:20:19;5.70;;;2.40;;
80117;SDS011;69424;48.770;-1.564;2023-05-16T07:22:47;4.40;;;1.70;;
80117;SDS011;69424;48.770;-1.564;2023-05-16T07:25:16;5.20;;;1.90;;
80117;SDS011;69424;48.770;-1.564;2023-05-16T07:27:44;8.20;;;1.70;;
80117;SDS011;69424;48.770;-1.564;2023-05-16T07:30:12;6.50;;;1.40;;
80117;SDS011;69424;48.770;-1.564;2023-05-16T07:32:41;4.90;;;1.80;;
80117;SDS011;69424;48.770;-1.564;2023-05-16T07:35:10;4.10;;;1.40;;
80117;SDS011;69424;48.770;-1.564;2023-05-16T07:37:40;8.00;;;1.90;;
80117;SDS011;69424;48.770;-1.564;2023-05-16T07:40:10;5.00;;;1.40;;
80117;SDS011;69424;48.770;-1.564;2023-05-16T07:42:39;5.10;;;1.90;;
80117;SDS011;69424;48.770;-1.564;2023-05-16T07:45:07;5.50;;;1.50;;
80117;SDS011;69424;48.770;-1.564;2023-05-16T07:47:35;3.90;;;1.30;;
80117;SDS011;69424;48.770;-1.564;2023-05-16T07:50:04;4.90;;;1.50;;
80117;SDS011;69424;48.770;-1.564;2023-05-16T07:52:33;5.40;;;1.60;;
80117;SDS011;69424;48.770;-1.564;2023-05-16T07:55:01;7.30;;;1.40;;
80117;SDS011;69424;48.770;-1.564;2023-05-16T07:57:30;4.40;;;1.50;;
80117;SDS011;69424;48.770;-1.564;2023-05-16T07:59:58;4.00;;;1.60;;
80117;SDS011;69424;48.770;-1.564;2023-05-16T08:02:27;7.20;;;1.20;;
80117;SDS011;69424;48.770;-1.564;2023-05-16T08:04:58;5.40;;;1.40;;
80117;SDS011;69424;48.770;-1.564;2023-05-16T08:07:26;4.30;;;1.40;;
80117;SDS011;69424;48.770;-1.564;2023-05-16T08:09:54;5.20;;;1.60;;
80117;SDS011;69424;48.770;-1.564;2023-05-16T08:12:22;6.80;;;1.60;;
80117;SDS011;69424;48.770;-1.564;2023-05-16T08:14:51;2.70;;;1.50;;
80117;SDS011;69424;48.770;-1.564;2023-05-16T08:17:19;2.10;;;1.20;;
80117;SDS011;69424;48.770;-1.564;2023-05-16T08:19:47;7.50;;;2.70;;
80117;SDS011;69424;48.770;-1.564;2023-05-16T08:22:16;7.00;;;1.90;;
80117;SDS011;69424;48.770;-1.564;2023-05-16T08:24:45;5.30;;;1.50;;
80117;SDS011;69424;48.770;-1.564;2023-05-16T08:27:13;7.60;;;1.80;;
80117;SDS011;69424;48.770;-1.564;2023-05-16T08:29:41;6.40;;;2.00;;
80117;SDS011;69424;48.770;-1.564;2023-05-16T08:32:09;5.20;;;1.40;;
80117;SDS011;69424;48.770;-1.564;2023-05-16T08:34:40;7.10;;;1.50;;
80117;SDS011;69424;48.770;-1.564;2023-05-16T08:37:08;2.30;;;1.00;;
80117;SDS011;69424;48.770;-1.564;2023-05-16T08:39:37;4.60;;;1.40;;
80117;SDS011;69424;48.770;-1.564;2023-05-16T08:42:07;2.80;;;1.50;;
80117;SDS011;69424;48.770;-1.564;2023-05-16T08:44:35;3.50;;;1.40;;
80117;SDS011;69424;48.770;-1.564;2023-05-16T08:47:09;7.80;;;2.60;;
80117;SDS011;69424;48.770;-1.564;2023-05-16T08:49:40;4.30;;;1.90;;
80117;SDS011;69424;48.770;-1.564;2023-05-16T08:52:10;6.40;;;1.70;;
80117;SDS011;69424;48.770;-1.564;2023-05-16T08:54:40;5.70;;;2.00;;
80117;SDS011;69424;48.770;-1.564;2023-05-16T08:57:09;4.10;;;1.40;;
80117;SDS011;69424;48.770;-1.564;2023-05-16T08:59:39;8.40;;;1.60;;
80117;SDS011;69424;48.770;-1.564;2023-05-16T09:02:07;6.40;;;1.80;;
80117;SDS011;69424;48.770;-1.564;2023-05-16T09:04:36;6.00;;;1.90;;
80117;SDS011;69424;48.770;-1.564;2023-05-16T09:07:05;4.40;;;1.60;;
80117;SDS011;69424;48.770;-1.564;2023-05-16T09:09:33;4.80;;;2.80;;
80117;SDS011;69424;48.770;-1.564;2023-05-16T09:12:02;5.90;;;2.30;;
80117;SDS011;69424;48.770;-1.564;2023-05-16T09:14:30;7.00;;;3.20;;
80117;SDS011;69424;48.770;-1.564;2023-05-16T09:17:05;7.10;;;2.90;;
80117;SDS011;69424;48.770;-1.564;2023-05-16T09:19:39;5.50;;;2.80;;
80117;SDS011;69424;48.770;-1.564;2023-05-16T09:22:13;5.00;;;2.70;;
80117;SDS011;69424;48.770;-1.564;2023-05-16T09:24:42;7.90;;;3.20;;
80117;SDS011;69424;48.770;-1.564;2023-05-16T09:27:12;6.30;;;3.10;;
80117;SDS011;69424;48.770;-1.564;2023-05-16T09:29:42;9.50;;;2.50;;
80117;SDS011;69424;48.770;-1.564;2023-05-16T09:32:15;6.30;;;2.20;;
80117;SDS011;69424;48.770;-1.564;2023-05-16T09:34:48;6.00;;;2.90;;
80117;SDS011;69424;48.770;-1.564;2023-05-16T09:37:18;6.80;;;2.40;;
80117;SDS011;69424;48.770;-1.564;2023-05-16T09:39:47;3.40;;;1.90;;
80117;SDS011;69424;48.770;-1.564;2023-05-16T09:42:18;4.20;;;2.00;;
80117;SDS011;69424;48.770;-1.564;2023-05-16T09:44:51;3.30;;;1.70;;
80117;SDS011;69424;48.770;-1.564;2023-05-16T09:47:21;7.30;;;2.10;;
80117;SDS011;69424;48.770;-1.564;2023-05-16T09:49:52;6.10;;;1.80;;
80117;SDS011;69424;48.770;-1.564;2023-05-16T09:52:21;2.50;;;1.70;;
80117;SDS011;69424;48.770;-1.564;2023-05-16T09:54:49;6.60;;;1.80;;
80117;SDS011;69424;48.770;-1.564;2023-05-16T09:57:18;4.30;;;1.80;;
80117;SDS011;69424;48.770;-1.564;2023-05-16T09:59:46;7.20;;;2.40;;
80117;SDS011;69424;48.770;-1.564;2023-05-16T10:02:15;3.80;;;1.40;;
80117;SDS011;69424;48.770;-1.564;2023-05-16T10:04:44;5.70;;;1.80;;
80117;SDS011;69424;48.770;-1.564;2023-05-16T10:07:13;11.70;;;1.80;;
80117;SDS011;69424;48.770;-1.564;2023-05-16T10:09:42;5.20;;;1.40;;
80117;SDS011;69424;48.770;-1.564;2023-05-16T10:12:12;2.80;;;1.50;;
80117;SDS011;69424;48.770;-1.564;2023-05-16T10:14:42;9.90;;;1.80;;
80117;SDS011;69424;48.770;-1.564;2023-05-16T10:19:42;4.60;;;1.50;;
80117;SDS011;69424;48.770;-1.564;2023-05-16T10:22:12;3.80;;;1.40;;
80117;SDS011;69424;48.770;-1.564;2023-05-16T10:24:51;5.60;;;1.70;;
80117;SDS011;69424;48.770;-1.564;2023-05-16T10:27:25;5.60;;;1.70;;
80117;SDS011;69424;48.770;-1.564;2023-05-16T10:29:54;6.30;;;1.70;;
80117;SDS011;69424;48.770;-1.564;2023-05-16T10:32:25;3.20;;;1.60;;
80117;SDS011;69424;48.770;-1.564;2023-05-16T10:34:54;5.20;;;1.50;;
80117;SDS011;69424;48.770;-1.564;2023-05-16T10:37:23;5.80;;;1.40;;
80117;SDS011;69424;48.770;-1.564;2023-05-16T10:39:52;4.60;;;1.80;;
80117;SDS011;69424;48.770;-1.564;2023-05-16T10:42:21;4.70;;;1.00;;
80117;SDS011;69424;48.770;-1.564;2023-05-16T10:44:52;4.40;;;1.20;;
80117;SDS011;69424;48.770;-1.564;2023-05-16T10:47:32;7.20;;;1.50;;
80117;SDS011;69424;48.770;-1.564;2023-05-16T10:50:00;6.40;;;1.80;;
80117;SDS011;69424;48.770;-1.564;2023-05-16T10:52:32;5.10;;;1.80;;
80117;SDS011;69424;48.770;-1.564;2023-05-16T10:55:02;6.70;;;1.70;;
80117;SDS011;69424;48.770;-1.564;2023-05-16T10:57:31;6.10;;;1.60;;
80117;SDS011;69424;48.770;-1.564;2023-05-16T11:00:00;6.90;;;1.60;;
80117;SDS011;69424;48.770;-1.564;2023-05-16T11:05:01;6.50;;;2.20;;
80117;SDS011;69424;48.770;-1.564;2023-05-16T11:07:33;9.70;;;2.20;;
80117;SDS011;69424;48.770;-1.564;2023-05-16T11:10:09;5.70;;;2.10;;
80117;SDS011;69424;48.770;-1.564;2023-05-16T11:17:46;4.60;;;2.00;;
80117;SDS011;69424;48.770;-1.564;2023-05-16T11:28:25;7.10;;;2.10;;
80117;SDS011;69424;48.770;-1.564;2023-05-16T11:30:56;8.30;;;2.70;;
80117;SDS011;69424;48.770;-1.564;2023-05-16T11:33:29;8.70;;;2.70;;
80117;SDS011;69424;48.770;-1.564;2023-05-16T11:36:02;8.10;;;2.20;;
80117;SDS011;69424;48.770;-1.564;2023-05-16T11:38:43;8.40;;;2.10;;
80117;SDS011;69424;48.770;-1.564;2023-05-16T11:41:11;9.00;;;2.00;;
80117;SDS011;69424;48.770;-1.564;2023-05-16T11:43:43;5.30;;;1.50;;
80117;SDS011;69424;48.770;-1.564;2023-05-16T11:46:13;8.40;;;2.00;;
80117;SDS011;69424;48.770;-1.564;2023-05-16T11:48:43;9.60;;;1.90;;
80117;SDS011;69424;48.770;-1.564;2023-05-16T11:51:13;7.00;;;2.40;;
80117;SDS011;69424;48.770;-1.564;2023-05-16T11:53:48;3.70;;;1.50;;
80117;SDS011;69424;48.770;-1.564;2023-05-16T11:56:17;8.20;;;1.60;;
80117;SDS011;69424;48.770;-1.564;2023-05-16T11:58:48;8.90;;;1.90;;
80117;SDS011;69424;48.770;-1.564;2023-05-16T12:01:17;10.00;;;1.90;;
80117;SDS011;69424;48.770;-1.564;2023-05-16T12:03:52;5.00;;;1.50;;
80117;SDS011;69424;48.770;-1.564;2023-05-16T12:06:22;14.80;;;1.80;;
80117;SDS011;69424;48.770;-1.564;2023-05-16T12:08:50;8.90;;;1.70;;
80117;SDS011;69424;48.770;-1.564;2023-05-16T12:11:20;8.40;;;1.80;;
80117;SDS011;69424;48.770;-1.564;2023-05-16T12:13:50;6.50;;;1.50;;
80117;SDS011;69424;48.770;-1.564;2023-05-16T12:16:19;6.90;;;1.70;;
80117;SDS011;69424;48.770;-1.564;2023-05-16T12:18:47;7.20;;;1.80;;
80117;SDS011;69424;48.770;-1.564;2023-05-16T12:21:16;7.10;;;1.60;;
80117;SDS011;69424;48.770;-1.564;2023-05-16T12:23:44;3.80;;;1.30;;
80117;SDS011;69424;48.770;-1.564;2023-05-16T12:26:12;8.20;;;1.60;;
80117;SDS011;69424;48.770;-1.564;2023-05-16T12:28:41;5.30;;;1.10;;
80117;SDS011;69424;48.770;-1.564;2023-05-16T12:31:20;7.20;;;1.40;;
80117;SDS011;69424;48.770;-1.564;2023-05-16T12:33:52;9.10;;;1.30;;
80117;SDS011;69424;48.770;-1.564;2023-05-16T12:36:22;9.00;;;1.30;;
80117;SDS011;69424;48.770;-1.564;2023-05-16T12:38:51;7.40;;;1.50;;
80117;SDS011;69424;48.770;-1.564;2023-05-16T12:41:21;5.40;;;1.10;;
80117;SDS011;69424;48.770;-1.564;2023-05-16T12:43:49;3.70;;;0.80;;
80117;SDS011;69424;48.770;-1.564;2023-05-16T12:46:18;13.00;;;1.40;;
80117;SDS011;69424;48.770;-1.564;2023-05-16T12:48:47;6.70;;;1.60;;
80117;SDS011;69424;48.770;-1.564;2023-05-16T12:51:16;6.40;;;1.50;;
80117;SDS011;69424;48.770;-1.564;2023-05-16T12:53:46;7.30;;;1.30;;
80117;SDS011;69424;48.770;-1.564;2023-05-16T12:56:38;8.60;;;1.20;;
80117;SDS011;69424;48.770;-1.564;2023-05-16T12:59:08;4.70;;;1.50;;
80117;SDS011;69424;48.770;-1.564;2023-05-16T13:01:36;7.00;;;1.20;;
80117;SDS011;69424;48.770;-1.564;2023-05-16T13:04:05;5.30;;;0.70;;
80117;SDS011;69424;48.770;-1.564;2023-05-16T13:06:33;10.00;;;1.30;;
80117;SDS011;69424;48.770;-1.564;2023-05-16T13:09:22;8.40;;;1.10;;
80117;SDS011;69424;48.770;-1.564;2023-05-16T13:11:51;11.10;;;1.30;;
80117;SDS011;69424;48.770;-1.564;2023-05-16T13:14:20;6.50;;;1.30;;
80117;SDS011;69424;48.770;-1.564;2023-05-16T13:16:48;7.30;;;1.00;;
80117;SDS011;69424;48.770;-1.564;2023-05-16T13:19:16;8.20;;;1.30;;
80117;SDS011;69424;48.770;-1.564;2023-05-16T13:21:45;8.60;;;1.10;;
80117;SDS011;69424;48.770;-1.564;2023-05-16T13:24:13;4.30;;;1.10;;
80117;SDS011;69424;48.770;-1.564;2023-05-16T13:26:41;6.60;;;0.80;;
80117;SDS011;69424;48.770;-1.564;2023-05-16T13:29:10;6.90;;;1.50;;
80117;SDS011;69424;48.770;-1.564;2023-05-16T13:31:39;5.90;;;1.10;;
80117;SDS011;69424;48.770;-1.564;2023-05-16T13:34:07;8.40;;;1.70;;
80117;SDS011;69424;48.770;-1.564;2023-05-16T13:36:35;7.70;;;1.50;;
80117;SDS011;69424;48.770;-1.564;2023-05-16T13:39:20;5.60;;;1.00;;
80117;SDS011;69424;48.770;-1.564;2023-05-16T13:41:49;7.00;;;1.00;;
80117;SDS011;69424;48.770;-1.564;2023-05-16T13:44:18;9.30;;;1.10;;
80117;SDS011;69424;48.770;-1.564;2023-05-16T13:46:47;7.30;;;1.50;;
80117;SDS011;69424;48.770;-1.564;2023-05-16T13:49:15;9.40;;;1.00;;
80117;SDS011;69424;48.770;-1.564;2023-05-16T13:51:43;5.70;;;0.80;;
80117;SDS011;69424;48.770;-1.564;2023-05-16T13:54:12;4.10;;;0.60;;
80117;SDS011;69424;48.770;-1.564;2023-05-16T13:56:40;4.60;;;1.10;;
80117;SDS011;69424;48.770;-1.564;2023-05-16T13:59:08;8.30;;;1.00;;
80117;SDS011;69424;48.770;-1.564;2023-05-16T14:01:45;3.80;;;0.80;;
80117;SDS011;69424;48.770;-1.564;2023-05-16T14:04:13;5.00;;;0.90;;
80117;SDS011;69424;48.770;-1.564;2023-05-16T14:06:41;6.20;;;0.80;;
80117;SDS011;69424;48.770;-1.564;2023-05-16T14:09:10;7.30;;;1.00;;
80117;SDS011;69424;48.770;-1.564;2023-05-16T14:11:39;6.70;;;1.10;;
80117;SDS011;69424;48.770;-1.564;2023-05-16T14:14:07;6.00;;;1.10;;
80117;SDS011;69424;48.770;-1.564;2023-05-16T14:16:36;7.20;;;0.80;;
80117;SDS011;69424;48.770;-1.564;2023-05-16T14:19:04;8.90;;;1.10;;
80117;SDS011;69424;48.770;-1.564;2023-05-16T14:21:33;4.50;;;1.10;;
80117;SDS011;69424;48.770;-1.564;2023-05-16T14:24:01;8.50;;;1.30;;
80117;SDS011;69424;48.770;-1.564;2023-05-16T14:26:29;6.20;;;0.80;;
80117;SDS011;69424;48.770;-1.564;2023-05-16T14:28:59;5.70;;;1.20;;
80117;SDS011;69424;48.770;-1.564;2023-05-16T14:31:27;6.70;;;1.20;;
80117;SDS011;69424;48.770;-1.564;2023-05-16T14:33:55;6.70;;;1.20;;
80117;SDS011;69424;48.770;-1.564;2023-05-16T14:36:24;6.60;;;1.30;;
80117;SDS011;69424;48.770;-1.564;2023-05-16T14:38:52;4.90;;;0.60;;
80117;SDS011;69424;48.770;-1.564;2023-05-16T14:41:20;5.90;;;0.90;;
80117;SDS011;69424;48.770;-1.564;2023-05-16T14:43:49;6.70;;;0.90;;
80117;SDS011;69424;48.770;-1.564;2023-05-16T14:46:17;3.50;;;0.90;;
80117;SDS011;69424;48.770;-1.564;2023-05-16T14:48:46;4.80;;;0.80;;
80117;SDS011;69424;48.770;-1.564;2023-05-16T14:51:15;3.40;;;0.70;;
80117;SDS011;69424;48.770;-1.564;2023-05-16T14:53:43;7.10;;;1.10;;
80117;SDS011;69424;48.770;-1.564;2023-05-16T14:56:13;3.90;;;0.70;;
80117;SDS011;69424;48.770;-1.564;2023-05-16T14:58:42;3.70;;;0.70;;
80117;SDS011;69424;48.770;-1.564;2023-05-16T15:01:10;3.30;;;0.70;;
80117;SDS011;69424;48.770;-1.564;2023-05-16T15:03:39;4.00;;;1.40;;
80117;SDS011;69424;48.770;-1.564;2023-05-16T15:06:22;6.90;;;1.60;;
80117;SDS011;69424;48.770;-1.564;2023-05-16T15:08:51;5.00;;;1.30;;
80117;SDS011;69424;48.770;-1.564;2023-05-16T15:11:20;4.40;;;0.80;;
80117;SDS011;69424;48.770;-1.564;2023-05-16T15:13:48;5.90;;;1.10;;
80117;SDS011;69424;48.770;-1.564;2023-05-16T15:16:16;4.90;;;0.90;;
80117;SDS011;69424;48.770;-1.564;2023-05-16T15:18:45;7.90;;;1.10;;
80117;SDS011;69424;48.770;-1.564;2023-05-16T15:21:13;5.90;;;1.10;;